sensor_id;sensor_type;location;lat;lon;timestamp;pressure;altitude;pressure_sealevel;temperature;humidity
31483;BME280;18103;52.246;8.052;2023-06-14T00:02:18;100351.44;;;18.96;46.99
31483;BME280;18103;52.246;8.052;2023-06-14T00:04:43;100350.97;;;18.93;46.95
31483;BME280;18103;52.246;8.052;2023-06-14T00:07:09;100356.00;;;18.88;47.14
31483;BME280;18103;52.246;8.052;2023-06-14T00:09:34;100350.97;;;18.85;47.16
31483;BME280;18103;52.246;8.052;2023-06-14T00:12:00;100349.31;;;18.84;47.03
31483;BME280;18103;52.246;8.052;2023-06-14T00:14:28;100355.81;;;18.89;46.94
31483;BME280;18103;52.246;8.052;2023-06-14T00:16:55;100349.34;;;18.75;47.06
31483;BME280;18103;52.246;8.052;2023-06-14T00:19:26;100361.53;;;18.78;47.30
31483;BME280;18103;52.246;8.052;2023-06-14T00:21:51;100354.66;;;18.84;47.17
31483;BME280;18103;52.246;8.052;2023-06-14T00:24:20;100363.22;;;18.79;47.30
31483;BME280;18103;52.246;8.052;2023-06-14T00:26:47;100363.25;;;18.71;47.81
31483;BME280;18103;52.246;8.052;2023-06-14T00:29:12;100368.97;;;18.59;47.61
31483;BME280;18103;52.246;8.052;2023-06-14T00:31:40;100371.75;;;18.66;47.59
31483;BME280;18103;52.246;8.052;2023-06-14T00:34:05;100367.13;;;18.60;47.64
31483;BME280;18103;52.246;8.052;2023-06-14T00:36:37;100372.47;;;18.60;48.06
31483;BME280;18103;52.246;8.052;2023-06-14T00:39:02;100367.28;;;18.58;47.78
31483;BME280;18103;52.246;8.052;2023-06-14T00:41:28;100366.78;;;18.55;47.93
31483;BME280;18103;52.246;8.052;2023-06-14T00:43:54;100368.47;;;18.56;48.01
31483;BME280;18103;52.246;8.052;2023-06-14T00:46:22;100364.81;;;18.49;48.49
31483;BME280;18103;52.246;8.052;2023-06-14T00:48:52;100369.69;;;18.37;48.23
31483;BME280;18103;52.246;8.052;2023-06-14T00:51:21;100372.50;;;18.43;48.22
31483;BME280;18103;52.246;8.052;2023-06-14T00:53:46;100370.34;;;18.47;47.90
31483;BME280;18103;52.246;8.052;2023-06-14T00:56:13;100370.16;;;18.49;48.26
31483;BME280;18103;52.246;8.052;2023-06-14T00:58:41;100369.03;;;18.26;48.92
31483;BME280;18103;52.246;8.052;2023-06-14T01:01:10;100377.06;;;18.35;48.75
31483;BME280;18103;52.246;8.052;2023-06-14T01:03:37;100379.53;;;18.36;48.67
31483;BME280;18103;52.246;8.052;2023-06-14T01:06:23;100382.06;;;18.21;49.54
31483;BME280;18103;52.246;8.052;2023-06-14T01:08:57;100392.75;;;18.21;49.78
31483;BME280;18103;52.246;8.052;2023-06-14T01:11:32;100383.28;;;18.10;50.16
31483;BME280;18103;52.246;8.052;2023-06-14T01:14:01;100383.56;;;18.24;49.48
31483;BME280;18103;52.246;8.052;2023-06-14T01:16:29;100385.78;;;18.12;49.88
31483;BME280;18103;52.246;8.052;2023-06-14T01:18:55;100386.41;;;18.22;49.84
31483;BME280;18103;52.246;8.052;2023-06-14T01:21:25;100384.91;;;18.11;49.44
31483;BME280;18103;52.246;8.052;2023-06-14T01:23:52;100393.97;;;18.02;50.45
31483;BME280;18103;52.246;8.052;2023-06-14T01:26:21;100389.97;;;18.06;50.23
31483;BME280;18103;52.246;8.052;2023-06-14T01:28:48;100396.63;;;17.94;50.68
31483;BME280;18103;52.246;8.052;2023-06-14T01:31:19;100394.44;;;17.89;50.88
31483;BME280;18103;52.246;8.052;2023-06-14T01:33:51;100398.13;;;17.88;50.80
31483;BME280;18103;52.246;8.052;2023-06-14T01:36:19;100398.94;;;17.81;50.82
31483;BME280;18103;52.246;8.052;2023-06-14T01:38:50;100390.09;;;17.80;50.96
31483;BME280;18103;52.246;8.052;2023-06-14T01:41:18;100395.91;;;17.84;50.78
31483;BME280;18103;52.246;8.052;2023-06-14T01:43:47;100396.44;;;17.71;51.17
31483;BME280;18103;52.246;8.052;2023-06-14T01:46:19;100401.91;;;17.61;51.76
31483;BME280;18103;52.246;8.052;2023-06-14T01:48:47;100403.75;;;17.60;51.83
31483;BME280;18103;52.246;8.052;2023-06-14T01:51:13;100405.59;;;17.52;52.22
31483;BME280;18103;52.246;8.052;2023-06-14T01:53:41;100409.44;;;17.49;52.45
31483;BME280;18103;52.246;8.052;2023-06-14T01:56:07;100410.59;;;17.47;52.43
31483;BME280;18103;52.246;8.052;2023-06-14T01:58:32;100407.06;;;17.54;52.13
31483;BME280;18103;52.246;8.052;2023-06-14T02:01:00;100406.06;;;17.31;52.84
31483;BME280;18103;52.246;8.052;2023-06-14T02:03:26;100410.38;;;17.32;53.21
31483;BME280;18103;52.246;8.052;2023-06-14T02:05:53;100405.53;;;17.27;52.97
31483;BME280;18103;52.246;8.052;2023-06-14T02:08:22;100411.41;;;17.31;52.89
31483;BME280;18103;52.246;8.052;2023-06-14T02:10:51;100409.88;;;17.28;52.92
31483;BME280;18103;52.246;8.052;2023-06-14T02:13:16;100415.34;;;17.18;53.00
31483;BME280;18103;52.246;8.052;2023-06-14T02:15:44;100420.38;;;17.21;53.04
31483;BME280;18103;52.246;8.052;2023-06-14T02:18:11;100420.38;;;17.21;52.71
31483;BME280;18103;52.246;8.052;2023-06-14T02:20:37;100420.72;;;17.26;52.56
31483;BME280;18103;52.246;8.052;2023-06-14T02:23:03;100415.16;;;17.12;52.97
31483;BME280;18103;52.246;8.052;2023-06-14T02:25:28;100417.34;;;17.16;53.38
31483;BME280;18103;52.246;8.052;2023-06-14T02:27:57;100412.16;;;17.15;53.30
31483;BME280;18103;52.246;8.052;2023-06-14T02:30:22;100412.78;;;17.00;53.84
31483;BME280;18103;52.246;8.052;2023-06-14T02:32:50;100414.59;;;16.91;54.13
31483;BME280;18103;52.246;8.052;2023-06-14T02:35:16;100414.78;;;16.98;53.57
31483;BME280;18103;52.246;8.052;2023-06-14T02:37:42;100418.53;;;16.87;53.83
31483;BME280;18103;52.246;8.052;2023-06-14T02:40:11;100409.59;;;16.97;53.89
31483;BME280;18103;52.246;8.052;2023-06-14T02:42:37;100415.91;;;16.96;53.59
31483;BME280;18103;52.246;8.052;2023-06-14T02:45:05;100424.41;;;16.91;54.08
31483;BME280;18103;52.246;8.052;2023-06-14T02:47:35;100422.09;;;16.96;53.62
31483;BME280;18103;52.246;8.052;2023-06-14T02:50:01;100420.75;;;16.92;54.27
31483;BME280;18103;52.246;8.052;2023-06-14T02:52:27;100419.50;;;16.78;54.65
31483;BME280;18103;52.246;8.052;2023-06-14T02:54:53;100415.97;;;16.69;54.97
31483;BME280;18103;52.246;8.052;2023-06-14T02:57:19;100421.63;;;16.74;54.28
31483;BME280;18103;52.246;8.052;2023-06-14T02:59:45;100429.06;;;16.63;55.22
31483;BME280;18103;52.246;8.052;2023-06-14T03:02:12;100417.72;;;16.60;55.21
31483;BME280;18103;52.246;8.052;2023-06-14T03:04:40;100435.19;;;16.55;55.63
31483;BME280;18103;52.246;8.052;2023-06-14T03:07:08;100433.69;;;16.52;55.60
31483;BME280;18103;52.246;8.052;2023-06-14T03:09:38;100434.69;;;16.51;55.67
31483;BME280;18103;52.246;8.052;2023-06-14T03:12:04;100436.69;;;16.57;55.34
31483;BME280;18103;52.246;8.052;2023-06-14T03:14:34;100445.72;;;16.56;55.10
31483;BME280;18103;52.246;8.052;2023-06-14T03:17:02;100447.91;;;16.61;55.00
31483;BME280;18103;52.246;8.052;2023-06-14T03:19:30;100446.53;;;16.57;55.37
31483;BME280;18103;52.246;8.052;2023-06-14T03:21:55;100445.28;;;16.43;55.89
31483;BME280;18103;52.246;8.052;2023-06-14T03:24:24;100445.44;;;16.41;55.94
31483;BME280;18103;52.246;8.052;2023-06-14T03:26:55;100451.25;;;16.37;56.10
31483;BME280;18103;52.246;8.052;2023-06-14T03:29:21;100452.00;;;16.29;56.58
31483;BME280;18103;52.246;8.052;2023-06-14T03:32:02;100451.53;;;16.34;56.29
31483;BME280;18103;52.246;8.052;2023-06-14T03:34:28;100470.50;;;16.31;56.59
31483;BME280;18103;52.246;8.052;2023-06-14T03:36:56;100463.19;;;16.33;56.63
31483;BME280;18103;52.246;8.052;2023-06-14T03:39:26;100459.31;;;16.27;56.64
31483;BME280;18103;52.246;8.052;2023-06-14T03:41:53;100461.69;;;16.12;57.74
31483;BME280;18103;52.246;8.052;2023-06-14T03:44:19;100468.00;;;16.29;57.16
31483;BME280;18103;52.246;8.052;2023-06-14T03:46:45;100464.78;;;16.25;57.34
31483;BME280;18103;52.246;8.052;2023-06-14T03:49:11;100474.53;;;16.17;57.39
31483;BME280;18103;52.246;8.052;2023-06-14T03:51:41;100479.88;;;16.17;57.86
31483;BME280;18103;52.246;8.052;2023-06-14T03:54:07;100476.81;;;16.12;57.63
31483;BME280;18103;52.246;8.052;2023-06-14T03:56:34;100479.13;;;16.06;58.27
31483;BME280;18103;52.246;8.052;2023-06-14T03:59:02;100471.06;;;16.16;57.94
31483;BME280;18103;52.246;8.052;2023-06-14T04:01:28;100476.81;;;16.12;58.66
31483;BME280;18103;52.246;8.052;2023-06-14T04:03:55;100476.22;;;16.18;57.77
31483;BME280;18103;52.246;8.052;2023-06-14T04:06:20;100477.69;;;16.12;58.04
31483;BME280;18103;52.246;8.052;2023-06-14T04:08:46;100484.00;;;16.11;58.19
31483;BME280;18103;52.246;8.052;2023-06-14T04:11:11;100485.97;;;16.09;58.40
31483;BME280;18103;52.246;8.052;2023-06-14T04:13:36;100493.97;;;16.09;58.02
31483;BME280;18103;52.246;8.052;2023-06-14T04:16:07;100495.94;;;16.07;58.67
31483;BME280;18103;52.246;8.052;2023-06-14T04:18:32;100502.94;;;16.08;58.59
31483;BME280;18103;52.246;8.052;2023-06-14T04:20:57;100501.09;;;16.08;58.66
31483;BME280;18103;52.246;8.052;2023-06-14T04:23:23;100513.50;;;16.18;58.65
31483;BME280;18103;52.246;8.052;2023-06-14T04:25:48;100505.22;;;16.21;58.13
31483;BME280;18103;52.246;8.052;2023-06-14T04:28:15;100517.16;;;16.17;57.86
31483;BME280;18103;52.246;8.052;2023-06-14T04:30:41;100521.81;;;16.15;59.00
31483;BME280;18103;52.246;8.052;2023-06-14T04:33:09;100521.25;;;16.29;58.63
31483;BME280;18103;52.246;8.052;2023-06-14T04:35:37;100525.38;;;16.23;58.38
31483;BME280;18103;52.246;8.052;2023-06-14T04:38:03;100530.94;;;16.30;58.24
31483;BME280;18103;52.246;8.052;2023-06-14T04:40:35;100527.72;;;16.27;58.45
31483;BME280;18103;52.246;8.052;2023-06-14T04:43:01;100538.38;;;16.27;58.45
31483;BME280;18103;52.246;8.052;2023-06-14T04:45:30;100537.88;;;16.23;58.22
31483;BME280;18103;52.246;8.052;2023-06-14T04:47:58;100532.59;;;16.31;58.22
31483;BME280;18103;52.246;8.052;2023-06-14T04:50:24;100535.25;;;16.31;58.48
31483;BME280;18103;52.246;8.052;2023-06-14T04:52:50;100531.69;;;16.40;58.64
31483;BME280;18103;52.246;8.052;2023-06-14T04:55:16;100537.22;;;16.47;58.64
31483;BME280;18103;52.246;8.052;2023-06-14T04:57:44;100543.47;;;16.38;58.49
31483;BME280;18103;52.246;8.052;2023-06-14T05:00:10;100535.41;;;16.48;57.81
31483;BME280;18103;52.246;8.052;2023-06-14T05:02:37;100533.44;;;16.50;57.88
31483;BME280;18103;52.246;8.052;2023-06-14T05:05:06;100539.00;;;16.65;57.60
31483;BME280;18103;52.246;8.052;2023-06-14T05:07:32;100536.22;;;16.66;57.80
31483;BME280;18103;52.246;8.052;2023-06-14T05:09:59;100536.47;;;16.81;57.29
31483;BME280;18103;52.246;8.052;2023-06-14T05:12:24;100533.81;;;16.81;57.52
31483;BME280;18103;52.246;8.052;2023-06-14T05:14:49;100536.47;;;16.81;57.35
31483;BME280;18103;52.246;8.052;2023-06-14T05:17:17;100534.19;;;16.86;56.90
31483;BME280;18103;52.246;8.052;2023-06-14T05:19:43;100536.63;;;16.98;56.87
31483;BME280;18103;52.246;8.052;2023-06-14T05:22:08;100540.91;;;16.90;58.07
31483;BME280;18103;52.246;8.052;2023-06-14T05:24:34;100550.25;;;16.95;57.62
31483;BME280;18103;52.246;8.052;2023-06-14T05:27:00;100539.16;;;17.07;56.96
31483;BME280;18103;52.246;8.052;2023-06-14T05:29:25;100541.41;;;17.20;57.09
31483;BME280;18103;52.246;8.052;2023-06-14T05:31:53;100543.28;;;17.28;56.70
31483;BME280;18103;52.246;8.052;2023-06-14T05:34:21;100541.47;;;17.37;57.17
31483;BME280;18103;52.246;8.052;2023-06-14T05:36:46;100550.47;;;17.36;57.31
31483;BME280;18103;52.246;8.052;2023-06-14T05:39:17;100554.50;;;17.40;57.01
31483;BME280;18103;52.246;8.052;2023-06-14T05:41:42;100555.22;;;17.50;57.31
31483;BME280;18103;52.246;8.052;2023-06-14T05:44:10;100561.91;;;17.62;56.74
31483;BME280;18103;52.246;8.052;2023-06-14T05:46:35;100565.81;;;17.76;55.88
31483;BME280;18103;52.246;8.052;2023-06-14T05:49:01;100564.63;;;17.71;56.57
31483;BME280;18103;52.246;8.052;2023-06-14T05:51:28;100572.34;;;17.90;56.06
31483;BME280;18103;52.246;8.052;2023-06-14T05:53:56;100574.44;;;17.97;56.31
31483;BME280;18103;52.246;8.052;2023-06-14T05:56:24;100570.75;;;18.06;55.56
31483;BME280;18103;52.246;8.052;2023-06-14T05:58:50;100574.75;;;18.02;55.40
31483;BME280;18103;52.246;8.052;2023-06-14T06:01:18;100574.31;;;18.15;55.11
31483;BME280;18103;52.246;8.052;2023-06-14T06:03:43;100573.63;;;18.21;55.00
31483;BME280;18103;52.246;8.052;2023-06-14T06:06:11;100578.16;;;18.20;55.69
31483;BME280;18103;52.246;8.052;2023-06-14T06:08:37;100583.31;;;18.38;54.59
31483;BME280;18103;52.246;8.052;2023-06-14T06:11:02;100581.16;;;18.34;55.38
31483;BME280;18103;52.246;8.052;2023-06-14T06:13:27;100588.66;;;18.46;55.32
31483;BME280;18103;52.246;8.052;2023-06-14T06:15:53;100580.00;;;18.69;54.22
31483;BME280;18103;52.246;8.052;2023-06-14T06:18:21;100579.66;;;18.80;54.48
31483;BME280;18103;52.246;8.052;2023-06-14T06:20:47;100580.81;;;18.86;54.65
31483;BME280;18103;52.246;8.052;2023-06-14T06:23:12;100588.88;;;18.94;53.86
31483;BME280;18103;52.246;8.052;2023-06-14T06:25:38;100586.34;;;19.01;53.74
31483;BME280;18103;52.246;8.052;2023-06-14T06:28:03;100579.63;;;19.13;53.51
31483;BME280;18103;52.246;8.052;2023-06-14T06:30:29;100578.44;;;19.24;53.45
31483;BME280;18103;52.246;8.052;2023-06-14T06:32:54;100574.22;;;19.38;53.06
31483;BME280;18103;52.246;8.052;2023-06-14T06:35:21;100575.97;;;19.54;52.75
31483;BME280;18103;52.246;8.052;2023-06-14T06:37:46;100576.94;;;19.61;52.40
31483;BME280;18103;52.246;8.052;2023-06-14T06:40:14;100572.97;;;19.57;52.09
31483;BME280;18103;52.246;8.052;2023-06-14T06:42:41;100573.56;;;19.76;51.73
31483;BME280;18103;52.246;8.052;2023-06-14T06:45:09;100578.50;;;19.95;50.97
31483;BME280;18103;52.246;8.052;2023-06-14T06:47:37;100572.47;;;19.93;51.51
31483;BME280;18103;52.246;8.052;2023-06-14T06:50:05;100574.63;;;19.98;51.65
31483;BME280;18103;52.246;8.052;2023-06-14T06:52:32;100584.41;;;20.14;50.61
31483;BME280;18103;52.246;8.052;2023-06-14T06:55:00;100586.13;;;20.30;49.98
31483;BME280;18103;52.246;8.052;2023-06-14T06:57:25;100591.63;;;20.37;50.12
31483;BME280;18103;52.246;8.052;2023-06-14T06:59:51;100590.25;;;20.41;49.50
31483;BME280;18103;52.246;8.052;2023-06-14T07:02:18;100595.03;;;20.30;50.79
31483;BME280;18103;52.246;8.052;2023-06-14T07:04:46;100590.81;;;20.36;50.68
31483;BME280;18103;52.246;8.052;2023-06-14T07:07:11;100600.31;;;20.62;49.80
31483;BME280;18103;52.246;8.052;2023-06-14T07:09:39;100601.22;;;20.54;49.51
31483;BME280;18103;52.246;8.052;2023-06-14T07:12:07;100606.84;;;20.67;49.86
31483;BME280;18103;52.246;8.052;2023-06-14T07:14:33;100600.41;;;20.77;49.98
31483;BME280;18103;52.246;8.052;2023-06-14T07:16:58;100610.81;;;20.72;49.53
31483;BME280;18103;52.246;8.052;2023-06-14T07:19:26;100612.53;;;20.88;48.97
31483;BME280;18103;52.246;8.052;2023-06-14T07:22:00;100605.63;;;20.70;49.45
31483;BME280;18103;52.246;8.052;2023-06-14T07:24:25;100610.44;;;20.98;48.15
31483;BME280;18103;52.246;8.052;2023-06-14T07:26:51;100615.66;;;20.76;49.66
31483;BME280;18103;52.246;8.052;2023-06-14T07:29:22;100611.00;;;20.70;49.13
31483;BME280;18103;52.246;8.052;2023-06-14T07:31:47;100616.25;;;20.87;48.63
31483;BME280;18103;52.246;8.052;2023-06-14T07:34:15;100612.47;;;20.96;48.33
31483;BME280;18103;52.246;8.052;2023-06-14T07:36:41;100619.97;;;21.00;48.31
31483;BME280;18103;52.246;8.052;2023-06-14T07:39:09;100611.38;;;21.20;47.68
31483;BME280;18103;52.246;8.052;2023-06-14T07:41:35;100625.63;;;21.06;47.61
31483;BME280;18103;52.246;8.052;2023-06-14T07:44:00;100625.78;;;21.04;47.13
31483;BME280;18103;52.246;8.052;2023-06-14T07:46:28;100629.66;;;20.87;45.84
31483;BME280;18103;52.246;8.052;2023-06-14T07:48:56;100635.63;;;21.12;46.97
31483;BME280;18103;52.246;8.052;2023-06-14T07:51:22;100620.81;;;21.16;46.66
31483;BME280;18103;52.246;8.052;2023-06-14T07:53:48;100629.16;;;21.36;46.11
31483;BME280;18103;52.246;8.052;2023-06-14T07:56:14;100630.72;;;21.00;45.56
31483;BME280;18103;52.246;8.052;2023-06-14T07:58:39;100628.78;;;21.09;45.57
31483;BME280;18103;52.246;8.052;2023-06-14T08:01:05;100625.63;;;21.20;45.17
31483;BME280;18103;52.246;8.052;2023-06-14T08:03:33;100619.72;;;21.25;45.60
31483;BME280;18103;52.246;8.052;2023-06-14T08:05:58;100623.41;;;21.39;45.45
31483;BME280;18103;52.246;8.052;2023-06-14T08:08:24;100625.09;;;21.40;45.96
31483;BME280;18103;52.246;8.052;2023-06-14T08:10:49;100624.72;;;21.43;45.52
31483;BME280;18103;52.246;8.052;2023-06-14T08:13:15;100629.19;;;21.51;45.67
31483;BME280;18103;52.246;8.052;2023-06-14T08:15:40;100619.66;;;21.63;45.74
31483;BME280;18103;52.246;8.052;2023-06-14T08:18:08;100621.63;;;21.55;45.36
31483;BME280;18103;52.246;8.052;2023-06-14T08:20:36;100617.22;;;21.68;45.18
31483;BME280;18103;52.246;8.052;2023-06-14T08:23:04;100611.03;;;21.83;45.60
31483;BME280;18103;52.246;8.052;2023-06-14T08:25:30;100614.09;;;21.80;45.59
31483;BME280;18103;52.246;8.052;2023-06-14T08:27:58;100620.09;;;21.82;45.81
31483;BME280;18103;52.246;8.052;2023-06-14T08:30:24;100623.88;;;21.87;44.99
31483;BME280;18103;52.246;8.052;2023-06-14T08:32:52;100622.25;;;21.72;45.48
31483;BME280;18103;52.246;8.052;2023-06-14T08:35:22;100627.34;;;21.66;44.47
31483;BME280;18103;52.246;8.052;2023-06-14T08:37:49;100631.41;;;21.77;44.81
31483;BME280;18103;52.246;8.052;2023-06-14T08:40:22;100621.09;;;21.81;44.73
31483;BME280;18103;52.246;8.052;2023-06-14T08:42:53;100619.88;;;21.98;44.81
31483;BME280;18103;52.246;8.052;2023-06-14T08:45:22;100623.41;;;21.99;44.83
31483;BME280;18103;52.246;8.052;2023-06-14T08:47:48;100628.06;;;21.90;44.49
31483;BME280;18103;52.246;8.052;2023-06-14T08:50:26;100616.59;;;21.81;43.77
31483;BME280;18103;52.246;8.052;2023-06-14T08:52:57;100617.25;;;21.53;44.70
31483;BME280;18103;52.246;8.052;2023-06-14T08:55:27;100621.81;;;22.04;44.40
31483;BME280;18103;52.246;8.052;2023-06-14T08:57:56;100623.19;;;22.00;43.75
31483;BME280;18103;52.246;8.052;2023-06-14T09:00:26;100622.78;;;21.82;44.36
31483;BME280;18103;52.246;8.052;2023-06-14T09:02:52;100624.72;;;21.88;43.84
31483;BME280;18103;52.246;8.052;2023-06-14T09:05:26;100626.38;;;21.89;44.43
31483;BME280;18103;52.246;8.052;2023-06-14T09:07:52;100626.25;;;22.12;44.64
31483;BME280;18103;52.246;8.052;2023-06-14T09:10:18;100628.22;;;22.03;45.36
31483;BME280;18103;52.246;8.052;2023-06-14T09:12:43;100638.19;;;22.25;44.89
31483;BME280;18103;52.246;8.052;2023-06-14T09:15:09;100634.69;;;22.09;45.33
31483;BME280;18103;52.246;8.052;2023-06-14T09:17:36;100639.75;;;22.34;44.29
31483;BME280;18103;52.246;8.052;2023-06-14T09:20:03;100636.59;;;22.30;44.75
31483;BME280;18103;52.246;8.052;2023-06-14T09:22:35;100633.97;;;22.37;43.42
31483;BME280;18103;52.246;8.052;2023-06-14T09:25:03;100635.13;;;22.49;44.06
31483;BME280;18103;52.246;8.052;2023-06-14T09:27:32;100639.03;;;22.47;44.02
31483;BME280;18103;52.246;8.052;2023-06-14T09:30:02;100639.63;;;22.64;43.27
31483;BME280;18103;52.246;8.052;2023-06-14T09:32:30;100640.59;;;22.56;44.11
31483;BME280;18103;52.246;8.052;2023-06-14T09:34:58;100640.38;;;22.58;43.53
31483;BME280;18103;52.246;8.052;2023-06-14T09:37:32;100645.72;;;22.72;43.40
31483;BME280;18103;52.246;8.052;2023-06-14T09:39:58;100647.47;;;22.87;43.83
31483;BME280;18103;52.246;8.052;2023-06-14T09:42:24;100647.56;;;22.72;42.95
31483;BME280;18103;52.246;8.052;2023-06-14T09:44:54;100647.63;;;22.35;43.06
31483;BME280;18103;52.246;8.052;2023-06-14T09:47:25;100656.66;;;22.49;42.42
31483;BME280;18103;52.246;8.052;2023-06-14T09:49:54;100650.78;;;22.24;42.94
31483;BME280;18103;52.246;8.052;2023-06-14T09:52:21;100644.38;;;22.25;42.87
31483;BME280;18103;52.246;8.052;2023-06-14T09:54:47;100641.66;;;22.03;43.15
31483;BME280;18103;52.246;8.052;2023-06-14T09:57:16;100653.72;;;22.44;43.66
31483;BME280;18103;52.246;8.052;2023-06-14T09:59:44;100653.66;;;22.22;42.77
31483;BME280;18103;52.246;8.052;2023-06-14T10:02:37;100646.56;;;22.15;42.84
31483;BME280;18103;52.246;8.052;2023-06-14T10:05:11;100644.38;;;22.25;42.87
31483;BME280;18103;52.246;8.052;2023-06-14T10:07:42;100653.47;;;22.39;42.90
31483;BME280;18103;52.246;8.052;2023-06-14T10:10:15;100647.34;;;22.30;42.50
31483;BME280;18103;52.246;8.052;2023-06-14T10:12:40;100637.91;;;22.34;42.91
31483;BME280;18103;52.246;8.052;2023-06-14T10:15:30;100647.25;;;22.24;42.58
31483;BME280;18103;52.246;8.052;2023-06-14T10:18:14;100642.00;;;22.52;42.80
31483;BME280;18103;52.246;8.052;2023-06-14T10:20:55;100644.03;;;22.71;42.75
31483;BME280;18103;52.246;8.052;2023-06-14T10:23:24;100644.28;;;22.55;42.42
31483;BME280;18103;52.246;8.052;2023-06-14T10:25:56;100653.84;;;22.36;42.51
31483;BME280;18103;52.246;8.052;2023-06-14T10:28:23;100643.91;;;22.36;42.40
31483;BME280;18103;52.246;8.052;2023-06-14T10:31:09;100637.84;;;22.71;42.40
31483;BME280;18103;52.246;8.052;2023-06-14T10:33:58;100651.16;;;22.58;42.38
31483;BME280;18103;52.246;8.052;2023-06-14T10:36:24;100647.56;;;22.72;41.60
31483;BME280;18103;52.246;8.052;2023-06-14T10:41:23;100653.59;;;22.74;41.69
31483;BME280;18103;52.246;8.052;2023-06-14T10:46:48;100644.19;;;22.42;41.90
31483;BME280;18103;52.246;8.052;2023-06-14T10:49:36;100647.19;;;22.75;41.78
31483;BME280;18103;52.246;8.052;2023-06-14T10:52:03;100643.25;;;22.99;42.11
31483;BME280;18103;52.246;8.052;2023-06-14T10:54:36;100641.22;;;23.08;41.58
31483;BME280;18103;52.246;8.052;2023-06-14T10:57:06;100647.75;;;22.92;40.91
31483;BME280;18103;52.246;8.052;2023-06-14T10:59:34;100648.22;;;23.02;41.47
31483;BME280;18103;52.246;8.052;2023-06-14T11:04:47;100630.38;;;23.58;40.63
31483;BME280;18103;52.246;8.052;2023-06-14T11:10:09;100636.63;;;24.07;41.24
31483;BME280;18103;52.246;8.052;2023-06-14T11:12:39;100634.34;;;24.04;40.46
31483;BME280;18103;52.246;8.052;2023-06-14T11:15:05;100640.28;;;23.86;40.21
31483;BME280;18103;52.246;8.052;2023-06-14T11:17:32;100637.41;;;23.52;39.85
31483;BME280;18103;52.246;8.052;2023-06-14T11:20:10;100636.28;;;23.40;39.62
31483;BME280;18103;52.246;8.052;2023-06-14T11:22:44;100620.53;;;23.37;39.82
31483;BME280;18103;52.246;8.052;2023-06-14T11:25:12;100616.78;;;23.31;39.82
31483;BME280;18103;52.246;8.052;2023-06-14T11:27:42;100617.16;;;23.63;39.53
31483;BME280;18103;52.246;8.052;2023-06-14T11:30:08;100615.31;;;23.70;39.59
31483;BME280;18103;52.246;8.052;2023-06-14T11:32:40;100615.69;;;24.02;39.46
31483;BME280;18103;52.246;8.052;2023-06-14T11:35:09;100616.53;;;24.09;39.62
31483;BME280;18103;52.246;8.052;2023-06-14T11:37:37;100609.66;;;24.00;39.20
31483;BME280;18103;52.246;8.052;2023-06-14T11:40:04;100605.78;;;24.30;39.45
31483;BME280;18103;52.246;8.052;2023-06-14T11:42:36;100607.47;;;24.37;38.93
31483;BME280;18103;52.246;8.052;2023-06-14T11:45:03;100603.44;;;24.00;38.84
31483;BME280;18103;52.246;8.052;2023-06-14T11:47:36;100602.25;;;24.29;38.67
31483;BME280;18103;52.246;8.052;2023-06-14T11:50:02;100597.94;;;24.82;38.24
31483;BME280;18103;52.246;8.052;2023-06-14T11:52:28;100599.59;;;25.03;38.15
31483;BME280;18103;52.246;8.052;2023-06-14T11:54:56;100602.72;;;24.80;37.87
31483;BME280;18103;52.246;8.052;2023-06-14T11:57:22;100597.53;;;24.98;38.28
31483;BME280;18103;52.246;8.052;2023-06-14T11:59:51;100596.06;;;25.02;38.14
31483;BME280;18103;52.246;8.052;2023-06-14T12:02:19;100591.47;;;25.23;38.30
31483;BME280;18103;52.246;8.052;2023-06-14T12:04:47;100596.44;;;25.13;38.31
31483;BME280;18103;52.246;8.052;2023-06-14T12:07:16;100584.97;;;25.31;37.64
31483;BME280;18103;52.246;8.052;2023-06-14T12:12:38;100585.09;;;24.90;36.78
31483;BME280;18103;52.246;8.052;2023-06-14T12:15:07;100594.59;;;24.93;36.39
31483;BME280;18103;52.246;8.052;2023-06-14T12:17:34;100586.72;;;24.45;37.64
31483;BME280;18103;52.246;8.052;2023-06-14T12:20:05;100595.81;;;25.24;37.69
31483;BME280;18103;52.246;8.052;2023-06-14T12:27:55;100592.75;;;24.87;37.03
31483;BME280;18103;52.246;8.052;2023-06-14T12:30:23;100582.09;;;25.39;36.40
31483;BME280;18103;52.246;8.052;2023-06-14T12:32:51;100586.66;;;25.38;36.28
31483;BME280;18103;52.246;8.052;2023-06-14T12:35:17;100579.56;;;25.89;35.57
31483;BME280;18103;52.246;8.052;2023-06-14T12:37:47;100578.16;;;25.21;35.36
31483;BME280;18103;52.246;8.052;2023-06-14T12:40:13;100591.09;;;24.86;35.78
31483;BME280;18103;52.246;8.052;2023-06-14T12:42:38;100584.66;;;25.00;36.15
31483;BME280;18103;52.246;8.052;2023-06-14T12:45:04;100585.84;;;25.24;36.04
31483;BME280;18103;52.246;8.052;2023-06-14T12:47:30;100581.69;;;25.22;35.82
31483;BME280;18103;52.246;8.052;2023-06-14T12:49:55;100592.72;;;25.14;35.71
31483;BME280;18103;52.246;8.052;2023-06-14T12:52:26;100588.91;;;25.48;35.70
31483;BME280;18103;52.246;8.052;2023-06-14T12:54:55;100584.13;;;25.43;35.68
31483;BME280;18103;52.246;8.052;2023-06-14T12:57:20;100604.34;;;25.34;35.40
31483;BME280;18103;52.246;8.052;2023-06-14T12:59:48;100602.72;;;24.73;35.59
31483;BME280;18103;52.246;8.052;2023-06-14T13:02:15;100600.25;;;24.71;35.83
31483;BME280;18103;52.246;8.052;2023-06-14T13:04:41;100582.13;;;25.05;35.97
31483;BME280;18103;52.246;8.052;2023-06-14T13:07:06;100590.00;;;25.20;35.91
31483;BME280;18103;52.246;8.052;2023-06-14T13:09:35;100591.59;;;25.55;35.41
31483;BME280;18103;52.246;8.052;2023-06-14T13:12:03;100596.69;;;25.76;35.96
31483;BME280;18103;52.246;8.052;2023-06-14T13:14:30;100591.72;;;25.73;35.68